sensor_id;sensor_type;location;lat;lon;timestamp;temperature;humidity
46730;DHT22;32476;50.002;11.854;2022-09-12T00:00:50;9.20;99.90
46730;DHT22;32476;50.002;11.854;2022-09-12T00:03:18;9.30;99.90
46730;DHT22;32476;50.002;11.854;2022-09-12T00:05:45;9.30;99.90
46730;DHT22;32476;50.002;11.854;2022-09-12T00:08:13;9.30;99.90
46730;DHT22;32476;50.002;11.854;2022-09-12T00:10:42;9.40;99.90
46730;DHT22;32476;50.002;11.854;2022-09-12T00:13:09;9.40;99.90
46730;DHT22;32476;50.002;11.854;2022-09-12T00:15:40;9.40;99.90
46730;DHT22;32476;50.002;11.854;2022-09-12T00:18:14;9.40;99.90
46730;DHT22;32476;50.002;11.854;2022-09-12T00:20:45;9.40;99.90
46730;DHT22;32476;50.002;11.854;2022-09-12T00:23:13;9.40;99.90
46730;DHT22;32476;50.002;11.854;2022-09-12T00:25:47;9.20;99.90
46730;DHT22;32476;50.002;11.854;2022-09-12T00:28:15;9.00;99.90
46730;DHT22;32476;50.002;11.854;2022-09-12T00:30:42;8.90;99.90
46730;DHT22;32476;50.002;11.854;2022-09-12T00:33:11;8.80;99.90
46730;DHT22;32476;50.002;11.854;2022-09-12T00:35:47;8.80;99.90
46730;DHT22;32476;50.002;11.854;2022-09-12T00:38:15;8.70;99.90
46730;DHT22;32476;50.002;11.854;2022-09-12T00:40:43;8.70;99.90
46730;DHT22;32476;50.002;11.854;2022-09-12T00:43:31;8.70;99.90
46730;DHT22;32476;50.002;11.854;2022-09-12T00:46:15;8.60;99.90
46730;DHT22;32476;50.002;11.854;2022-09-12T00:49:00;8.60;99.90
46730;DHT22;32476;50.002;11.854;2022-09-12T00:51:45;8.50;99.90
46730;DHT22;32476;50.002;11.854;2022-09-12T00:54:19;8.40;99.90
46730;DHT22;32476;50.002;11.854;2022-09-12T00:56:50;8.40;99.90
46730;DHT22;32476;50.002;11.854;2022-09-12T00:59:23;8.30;99.90
46730;DHT22;32476;50.002;11.854;2022-09-12T01:01:53;8.30;99.90
46730;DHT22;32476;50.002;11.854;2022-09-12T01:04:22;8.30;99.90
46730;DHT22;32476;50.002;11.854;2022-09-12T01:06:49;8.60;99.90
46730;DHT22;32476;50.002;11.854;2022-09-12T01:09:19;8.70;99.90
46730;DHT22;32476;50.002;11.854;2022-09-12T01:11:47;8.70;99.90
46730;DHT22;32476;50.002;11.854;2022-09-12T01:14:14;8.80;99.90
46730;DHT22;32476;50.002;11.854;2022-09-12T01:16:43;8.90;99.90
46730;DHT22;32476;50.002;11.854;2022-09-12T01:28:57;9.00;99.90
46730;DHT22;32476;50.002;11.854;2022-09-12T01:31:33;9.10;99.90
46730;DHT22;32476;50.002;11.854;2022-09-12T01:42:51;9.20;99.90
46730;DHT22;32476;50.002;11.854;2022-09-12T01:45:55;9.20;99.90
46730;DHT22;32476;50.002;11.854;2022-09-12T01:48:52;9.10;99.90
46730;DHT22;32476;50.002;11.854;2022-09-12T01:51:31;9.20;99.90
46730;DHT22;32476;50.002;11.854;2022-09-12T01:54:18;9.30;99.90
46730;DHT22;32476;50.002;11.854;2022-09-12T01:56:52;9.30;99.90
46730;DHT22;32476;50.002;11.854;2022-09-12T01:59:44;9.40;99.90
46730;DHT22;32476;50.002;11.854;2022-09-12T02:02:21;9.40;99.90
46730;DHT22;32476;50.002;11.854;2022-09-12T02:05:09;9.50;99.90
46730;DHT22;32476;50.002;11.854;2022-09-12T02:07:50;9.50;99.90
46730;DHT22;32476;50.002;11.854;2022-09-12T02:10:22;9.60;99.90
46730;DHT22;32476;50.002;11.854;2022-09-12T02:12:56;9.60;99.90
46730;DHT22;32476;50.002;11.854;2022-09-12T02:15:40;9.70;99.90
46730;DHT22;32476;50.002;11.854;2022-09-12T02:18:12;9.70;99.90
46730;DHT22;32476;50.002;11.854;2022-09-12T02:20:42;9.70;99.90
46730;DHT22;32476;50.002;11.854;2022-09-12T02:23:19;9.70;99.90
46730;DHT22;32476;50.002;11.854;2022-09-12T02:25:52;9.80;99.90
46730;DHT22;32476;50.002;11.854;2022-09-12T02:28:34;9.80;99.90
46730;DHT22;32476;50.002;11.854;2022-09-12T02:39:34;10.00;99.90
46730;DHT22;32476;50.002;11.854;2022-09-12T02:42:00;10.00;99.90
46730;DHT22;32476;50.002;11.854;2022-09-12T02:44:28;9.90;99.90
46730;DHT22;32476;50.002;11.854;2022-09-12T02:47:19;9.90;99.90
46730;DHT22;32476;50.002;11.854;2022-09-12T02:49:49;9.80;99.90
46730;DHT22;32476;50.002;11.854;2022-09-12T02:52:17;9.70;99.90
46730;DHT22;32476;50.002;11.854;2022-09-12T02:54:44;9.60;99.90
46730;DHT22;32476;50.002;11.854;2022-09-12T02:57:15;9.50;99.90
46730;DHT22;32476;50.002;11.854;2022-09-12T02:59:44;9.60;99.90
46730;DHT22;32476;50.002;11.854;2022-09-12T03:11:19;9.70;99.90
46730;DHT22;32476;50.002;11.854;2022-09-12T03:13:58;9.60;99.90
46730;DHT22;32476;50.002;11.854;2022-09-12T03:22:20;9.40;99.90
46730;DHT22;32476;50.002;11.854;2022-09-12T03:27:57;9.50;99.90
46730;DHT22;32476;50.002;11.854;2022-09-12T03:30:25;9.50;99.90
46730;DHT22;32476;50.002;11.854;2022-09-12T03:32:53;9.50;99.90
46730;DHT22;32476;50.002;11.854;2022-09-12T03:35:22;9.60;99.90
46730;DHT22;32476;50.002;11.854;2022-09-12T03:37:50;9.60;99.90
46730;DHT22;32476;50.002;11.854;2022-09-12T03:40:18;9.60;99.90
46730;DHT22;32476;50.002;11.854;2022-09-12T03:42:44;9.60;99.90
46730;DHT22;32476;50.002;11.854;2022-09-12T03:45:10;9.60;99.90
46730;DHT22;32476;50.002;11.854;2022-09-12T03:47:38;9.60;99.90
46730;DHT22;32476;50.002;11.854;2022-09-12T03:50:05;9.60;99.90
46730;DHT22;32476;50.002;11.854;2022-09-12T03:52:31;9.60;99.90
46730;DHT22;32476;50.002;11.854;2022-09-12T03:54:59;9.70;99.90
46730;DHT22;32476;50.002;11.854;2022-09-12T03:57:25;9.70;99.90
46730;DHT22;32476;50.002;11.854;2022-09-12T03:59:50;9.70;99.90
46730;DHT22;32476;50.002;11.854;2022-09-12T04:02:18;9.60;99.90
46730;DHT22;32476;50.002;11.854;2022-09-12T04:04:44;9.70;99.90
46730;DHT22;32476;50.002;11.854;2022-09-12T04:07:12;9.60;99.90
46730;DHT22;32476;50.002;11.854;2022-09-12T04:09:39;9.60;99.90
46730;DHT22;32476;50.002;11.854;2022-09-12T04:12:06;9.60;99.90
46730;DHT22;32476;50.002;11.854;2022-09-12T04:14:32;9.60;99.90
46730;DHT22;32476;50.002;11.854;2022-09-12T04:17:00;9.50;99.90
46730;DHT22;32476;50.002;11.854;2022-09-12T04:19:27;9.50;99.90
46730;DHT22;32476;50.002;11.854;2022-09-12T04:21:53;9.60;99.90
46730;DHT22;32476;50.002;11.854;2022-09-12T04:24:21;9.70;99.90
46730;DHT22;32476;50.002;11.854;2022-09-12T04:26:46;9.70;99.90
46730;DHT22;32476;50.002;11.854;2022-09-12T04:29:13;9.70;99.90
46730;DHT22;32476;50.002;11.854;2022-09-12T04:31:41;9.70;99.90
46730;DHT22;32476;50.002;11.854;2022-09-12T04:34:07;9.80;99.90
46730;DHT22;32476;50.002;11.854;2022-09-12T04:36:33;9.80;99.90
46730;DHT22;32476;50.002;11.854;2022-09-12T04:39:02;9.70;99.90
46730;DHT22;32476;50.002;11.854;2022-09-12T04:41:31;9.60;99.90
46730;DHT22;32476;50.002;11.854;2022-09-12T04:44:11;9.60;99.90
46730;DHT22;32476;50.002;11.854;2022-09-12T04:46:44;9.60;99.90
46730;DHT22;32476;50.002;11.854;2022-09-12T04:49:13;9.60;99.90
46730;DHT22;32476;50.002;11.854;2022-09-12T04:51:41;9.60;99.90
46730;DHT22;32476;50.002;11.854;2022-09-12T04:54:12;9.50;99.90
46730;DHT22;32476;50.002;11.854;2022-09-12T04:56:43;9.60;99.90
46730;DHT22;32476;50.002;11.854;2022-09-12T04:59:11;9.50;99.90
46730;DHT22;32476;50.002;11.854;2022-09-12T05:01:38;9.50;99.90
46730;DHT22;32476;50.002;11.854;2022-09-12T05:04:06;9.50;99.90
46730;DHT22;32476;50.002;11.854;2022-09-12T05:06:35;9.50;99.90
46730;DHT22;32476;50.002;11.854;2022-09-12T05:09:04;9.50;99.90
46730;DHT22;32476;50.002;11.854;2022-09-12T05:11:35;9.40;99.90
46730;DHT22;32476;50.002;11.854;2022-09-12T05:14:03;9.40;99.90
46730;DHT22;32476;50.002;11.854;2022-09-12T05:16:29;9.40;99.90
46730;DHT22;32476;50.002;11.854;2022-09-12T05:18:58;9.50;99.90
46730;DHT22;32476;50.002;11.854;2022-09-12T05:21:26;9.50;99.90
46730;DHT22;32476;50.002;11.854;2022-09-12T05:23:54;9.50;99.90
46730;DHT22;32476;50.002;11.854;2022-09-12T05:26:23;9.50;99.90
46730;DHT22;32476;50.002;11.854;2022-09-12T05:28:50;9.60;99.90
46730;DHT22;32476;50.002;11.854;2022-09-12T05:31:19;9.60;99.90
46730;DHT22;32476;50.002;11.854;2022-09-12T05:33:49;9.60;99.90
46730;DHT22;32476;50.002;11.854;2022-09-12T05:36:17;9.60;99.90
46730;DHT22;32476;50.002;11.854;2022-09-12T05:38:45;9.60;99.90
46730;DHT22;32476;50.002;11.854;2022-09-12T05:41:15;9.70;99.90
46730;DHT22;32476;50.002;11.854;2022-09-12T05:43:50;9.60;99.90
46730;DHT22;32476;50.002;11.854;2022-09-12T05:46:20;9.60;99.90
46730;DHT22;32476;50.002;11.854;2022-09-12T05:48:48;9.70;99.90
46730;DHT22;32476;50.002;11.854;2022-09-12T05:51:19;9.60;99.90
46730;DHT22;32476;50.002;11.854;2022-09-12T05:53:57;9.60;99.90
46730;DHT22;32476;50.002;11.854;2022-09-12T05:56:26;9.70;99.90
46730;DHT22;32476;50.002;11.854;2022-09-12T05:59:02;9.70;99.90
46730;DHT22;32476;50.002;11.854;2022-09-12T06:01:30;9.80;99.90
46730;DHT22;32476;50.002;11.854;2022-09-12T06:04:01;9.90;99.90
46730;DHT22;32476;50.002;11.854;2022-09-12T06:06:30;9.90;99.90
46730;DHT22;32476;50.002;11.854;2022-09-12T06:09:01;9.90;99.90
46730;DHT22;32476;50.002;11.854;2022-09-12T06:11:32;10.00;99.90
46730;DHT22;32476;50.002;11.854;2022-09-12T06:14:00;10.00;99.90
46730;DHT22;32476;50.002;11.854;2022-09-12T06:16:28;10.10;99.90
46730;DHT22;32476;50.002;11.854;2022-09-12T06:19:02;10.40;99.90
46730;DHT22;32476;50.002;11.854;2022-09-12T06:21:33;10.60;99.90
46730;DHT22;32476;50.002;11.854;2022-09-12T06:24:01;10.90;99.90
46730;DHT22;32476;50.002;11.854;2022-09-12T06:26:28;11.10;99.90
46730;DHT22;32476;50.002;11.854;2022-09-12T06:28:55;11.30;99.90
46730;DHT22;32476;50.002;11.854;2022-09-12T06:31:30;11.50;99.90
46730;DHT22;32476;50.002;11.854;2022-09-12T06:34:05;11.80;99.90
46730;DHT22;32476;50.002;11.854;2022-09-12T06:36:37;12.10;99.90
46730;DHT22;32476;50.002;11.854;2022-09-12T06:39:16;12.30;99.90
46730;DHT22;32476;50.002;11.854;2022-09-12T06:41:46;12.50;99.90
46730;DHT22;32476;50.002;11.854;2022-09-12T06:44:19;12.70;99.90
46730;DHT22;32476;50.002;11.854;2022-09-12T06:46:49;12.90;99.90
46730;DHT22;32476;50.002;11.854;2022-09-12T06:49:15;13.10;99.90
46730;DHT22;32476;50.002;11.854;2022-09-12T06:51:42;13.20;99.90
46730;DHT22;32476;50.002;11.854;2022-09-12T06:54:14;13.50;99.90
46730;DHT22;32476;50.002;11.854;2022-09-12T06:56:41;13.60;99.90
46730;DHT22;32476;50.002;11.854;2022-09-12T06:59:08;13.70;99.90
46730;DHT22;32476;50.002;11.854;2022-09-12T07:01:35;14.00;99.90
46730;DHT22;32476;50.002;11.854;2022-09-12T07:04:02;14.10;99.90
46730;DHT22;32476;50.002;11.854;2022-09-12T07:06:31;14.30;99.90
46730;DHT22;32476;50.002;11.854;2022-09-12T07:09:07;14.50;99.90
46730;DHT22;32476;50.002;11.854;2022-09-12T07:11:36;14.70;99.90
46730;DHT22;32476;50.002;11.854;2022-09-12T07:14:06;14.70;99.90
46730;DHT22;32476;50.002;11.854;2022-09-12T07:16:36;14.80;99.90
46730;DHT22;32476;50.002;11.854;2022-09-12T07:19:03;14.80;99.90
46730;DHT22;32476;50.002;11.854;2022-09-12T07:25:16;14.90;99.90
46730;DHT22;32476;50.002;11.854;2022-09-12T07:27:44;15.00;99.90
46730;DHT22;32476;50.002;11.854;2022-09-12T07:30:10;15.00;99.90
46730;DHT22;32476;50.002;11.854;2022-09-12T07:32:36;15.10;99.90
46730;DHT22;32476;50.002;11.854;2022-09-12T07:35:04;15.40;99.90
46730;DHT22;32476;50.002;11.854;2022-09-12T07:37:30;15.40;99.90
46730;DHT22;32476;50.002;11.854;2022-09-12T07:39:56;15.60;99.90
46730;DHT22;32476;50.002;11.854;2022-09-12T07:42:24;15.60;99.90
46730;DHT22;32476;50.002;11.854;2022-09-12T07:44:50;15.60;99.90
46730;DHT22;32476;50.002;11.854;2022-09-12T07:47:17;15.70;99.90
46730;DHT22;32476;50.002;11.854;2022-09-12T07:49:44;15.60;99.90
46730;DHT22;32476;50.002;11.854;2022-09-12T07:52:10;16.00;99.90
46730;DHT22;32476;50.002;11.854;2022-09-12T07:54:36;16.10;99.90
46730;DHT22;32476;50.002;11.854;2022-09-12T07:57:04;16.10;99.90
46730;DHT22;32476;50.002;11.854;2022-09-12T07:59:30;15.90;99.90
46730;DHT22;32476;50.002;11.854;2022-09-12T08:01:55;15.90;99.90
46730;DHT22;32476;50.002;11.854;2022-09-12T08:04:23;15.80;99.90
46730;DHT22;32476;50.002;11.854;2022-09-12T08:06:49;15.70;99.90
46730;DHT22;32476;50.002;11.854;2022-09-12T08:09:16;15.60;99.90
46730;DHT22;32476;50.002;11.854;2022-09-12T08:11:43;15.90;99.90
46730;DHT22;32476;50.002;11.854;2022-09-12T08:14:09;16.00;99.90
46730;DHT22;32476;50.002;11.854;2022-09-12T08:16:35;16.00;99.90
46730;DHT22;32476;50.002;11.854;2022-09-12T08:19:03;16.00;99.90
46730;DHT22;32476;50.002;11.854;2022-09-12T08:21:30;15.80;99.90
46730;DHT22;32476;50.002;11.854;2022-09-12T08:24:00;15.70;99.90
46730;DHT22;32476;50.002;11.854;2022-09-12T08:26:32;15.60;99.90
46730;DHT22;32476;50.002;11.854;2022-09-12T08:28:58;15.50;99.90
46730;DHT22;32476;50.002;11.854;2022-09-12T08:31:26;15.50;99.90
46730;DHT22;32476;50.002;11.854;2022-09-12T08:33:55;15.30;99.90
46730;DHT22;32476;50.002;11.854;2022-09-12T08:36:24;15.30;99.90
46730;DHT22;32476;50.002;11.854;2022-09-12T08:38:54;15.30;99.90
46730;DHT22;32476;50.002;11.854;2022-09-12T08:47:38;16.80;99.90
46730;DHT22;32476;50.002;11.854;2022-09-12T08:57:58;18.40;99.90
46730;DHT22;32476;50.002;11.854;2022-09-12T09:00:35;18.60;99.90
46730;DHT22;32476;50.002;11.854;2022-09-12T09:03:37;18.70;99.90
46730;DHT22;32476;50.002;11.854;2022-09-12T09:18:23;18.60;99.90
46730;DHT22;32476;50.002;11.854;2022-09-12T09:24:03;17.90;99.90
46730;DHT22;32476;50.002;11.854;2022-09-12T09:26:48;17.70;99.90
46730;DHT22;32476;50.002;11.854;2022-09-12T09:29:19;17.60;99.90
46730;DHT22;32476;50.002;11.854;2022-09-12T09:31:54;17.40;99.90
46730;DHT22;32476;50.002;11.854;2022-09-12T09:34:24;18.10;99.90
46730;DHT22;32476;50.002;11.854;2022-09-12T09:37:05;18.00;99.90
46730;DHT22;32476;50.002;11.854;2022-09-12T09:42:58;17.30;99.90
46730;DHT22;32476;50.002;11.854;2022-09-12T09:45:29;17.10;99.90
46730;DHT22;32476;50.002;11.854;2022-09-12T09:50:36;16.90;99.90
46730;DHT22;32476;50.002;11.854;2022-09-12T09:53:10;17.00;99.90
46730;DHT22;32476;50.002;11.854;2022-09-12T09:56:06;16.90;99.90
46730;DHT22;32476;50.002;11.854;2022-09-12T09:58:36;16.80;99.90
46730;DHT22;32476;50.002;11.854;2022-09-12T10:01:15;16.80;99.90
46730;DHT22;32476;50.002;11.854;2022-09-12T10:03:52;16.80;99.90
46730;DHT22;32476;50.002;11.854;2022-09-12T10:08:49;16.80;99.90
46730;DHT22;32476;50.002;11.854;2022-09-12T10:11:19;16.90;99.90
46730;DHT22;32476;50.002;11.854;2022-09-12T10:16:25;16.90;99.90
46730;DHT22;32476;50.002;11.854;2022-09-12T10:18:54;16.90;99.90
46730;DHT22;32476;50.002;11.854;2022-09-12T10:21:49;17.10;99.90
46730;DHT22;32476;50.002;11.854;2022-09-12T10:32:49;18.10;99.90
46730;DHT22;32476;50.002;11.854;2022-09-12T10:35:30;17.70;99.90
46730;DHT22;32476;50.002;11.854;2022-09-12T10:38:24;17.60;99.90
46730;DHT22;32476;50.002;11.854;2022-09-12T10:41:01;17.90;99.90
46730;DHT22;32476;50.002;11.854;2022-09-12T10:43:36;18.60;99.90
46730;DHT22;32476;50.002;11.854;2022-09-12T10:46:21;19.10;99.90
46730;DHT22;32476;50.002;11.854;2022-09-12T10:48:51;19.50;99.90
46730;DHT22;32476;50.002;11.854;2022-09-12T10:51:38;19.60;99.90
46730;DHT22;32476;50.002;11.854;2022-09-12T10:54:07;20.10;99.90
46730;DHT22;32476;50.002;11.854;2022-09-12T11:08:38;19.20;99.90
46730;DHT22;32476;50.002;11.854;2022-09-12T11:14:54;18.90;99.90
46730;DHT22;32476;50.002;11.854;2022-09-12T11:22:43;18.70;99.90
46730;DHT22;32476;50.002;11.854;2022-09-12T11:28:51;19.80;99.90
46730;DHT22;32476;50.002;11.854;2022-09-12T11:34:10;21.10;99.90
46730;DHT22;32476;50.002;11.854;2022-09-12T11:37:10;21.40;99.90
46730;DHT22;32476;50.002;11.854;2022-09-12T11:39:49;21.10;99.90
46730;DHT22;32476;50.002;11.854;2022-09-12T11:42:28;21.00;99.90
46730;DHT22;32476;50.002;11.854;2022-09-12T11:45:21;21.40;99.90
46730;DHT22;32476;50.002;11.854;2022-09-12T11:47:53;21.20;99.90
46730;DHT22;32476;50.002;11.854;2022-09-12T11:50:30;20.80;99.90
46730;DHT22;32476;50.002;11.854;2022-09-12T11:53:02;20.50;99.90
46730;DHT22;32476;50.002;11.854;2022-09-12T11:55:49;20.20;99.90
46730;DHT22;32476;50.002;11.854;2022-09-12T11:58:22;19.80;99.90
46730;DHT22;32476;50.002;11.854;2022-09-12T12:00:56;19.90;99.90
46730;DHT22;32476;50.002;11.854;2022-09-12T12:03:43;19.70;99.90
46730;DHT22;32476;50.002;11.854;2022-09-12T12:06:29;19.50;99.90
46730;DHT22;32476;50.002;11.854;2022-09-12T12:08:56;19.20;99.90
46730;DHT22;32476;50.002;11.854;2022-09-12T12:11:41;19.10;99.90
46730;DHT22;32476;50.002;11.854;2022-09-12T12:14:22;18.90;99.90
46730;DHT22;32476;50.002;11.854;2022-09-12T12:16:53;19.10;99.90
46730;DHT22;32476;50.002;11.854;2022-09-12T12:19:32;19.10;99.90
46730;DHT22;32476;50.002;11.854;2022-09-12T12:22:06;19.00;99.90
46730;DHT22;32476;50.002;11.854;2022-09-12T12:24:33;19.10;99.90
46730;DHT22;32476;50.002;11.854;2022-09-12T12:27:03;19.30;99.90
46730;DHT22;32476;50.002;11.854;2022-09-12T12:29:38;20.00;99.90
46730;DHT22;32476;50.002;11.854;2022-09-12T12:34:45;19.90;99.90
46730;DHT22;32476;50.002;11.854;2022-09-12T12:45:03;19.50;99.90
46730;DHT22;32476;50.002;11.854;2022-09-12T12:48:00;19.60;99.90
46730;DHT22;32476;50.002;11.854;2022-09-12T12:50:30;20.40;99.90
46730;DHT22;32476;50.002;11.854;2022-09-12T12:53:04;20.40;99.90
46730;DHT22;32476;50.002;11.854;2022-09-12T12:55:47;20.40;99.90
46730;DHT22;32476;50.002;11.854;2022-09-12T13:01:18;20.40;99.90
46730;DHT22;32476;50.002;11.854;2022-09-12T13:03:57;20.50;99.90
46730;DHT22;32476;50.002;11.854;2022-09-12T13:06:43;20.30;99.90
46730;DHT22;32476;50.002;11.854;2022-09-12T13:09:19;20.20;99.90
46730;DHT22;32476;50.002;11.854;2022-09-12T13:12:03;20.20;99.90
46730;DHT22;32476;50.002;11.854;2022-09-12T13:14:49;20.20;99.90
46730;DHT22;32476;50.002;11.854;2022-09-12T13:22:51;20.40;99.90
46730;DHT22;32476;50.002;11.854;2022-09-12T13:28:20;20.60;99.90
46730;DHT22;32476;50.002;11.854;2022-09-12T13:31:14;21.10;99.90
46730;DHT22;32476;50.002;11.854;2022-09-12T13:33:54;21.30;99.90
46730;DHT22;32476;50.002;11.854;2022-09-12T13:36:45;21.30;99.90
46730;DHT22;32476;50.002;11.854;2022-09-12T13:39:40;21.30;99.90
46730;DHT22;32476;50.002;11.854;2022-09-12T13:45:22;21.10;99.90
46730;DHT22;32476;50.002;11.854;2022-09-12T13:47:52;21.10;99.90
46730;DHT22;32476;50.002;11.854;2022-09-12T13:50:26;21.00;99.90
46730;DHT22;32476;50.002;11.854;2022-09-12T13:52:58;21.10;99.90
46730;DHT22;32476;50.002;11.854;2022-09-12T13:55:41;21.00;99.90
46730;DHT22;32476;50.002;11.854;2022-09-12T13:58:22;20.60;99.90
46730;DHT22;32476;50.002;11.854;2022-09-12T14:01:15;20.50;99.90
46730;DHT22;32476;50.002;11.854;2022-09-12T14:03:55;19.80;99.90
46730;DHT22;32476;50.002;11.854;2022-09-12T14:06:48;19.60;99.90
46730;DHT22;32476;50.002;11.854;2022-09-12T14:09:39;19.60;99.90
46730;DHT22;32476;50.002;11.854;2022-09-12T14:12:17;19.70;99.90
46730;DHT22;32476;50.002;11.854;2022-09-12T14:14:51;19.70;99.90
46730;DHT22;32476;50.002;11.854;2022-09-12T14:20:14;19.70;99.90
46730;DHT22;32476;50.002;11.854;2022-09-12T14:22:44;19.40;99.90
46730;DHT22;32476;50.002;11.854;2022-09-12T14:25:22;19.20;99.90
46730;DHT22;32476;50.002;11.854;2022-09-12T14:27:55;19.20;97.20
46730;DHT22;32476;50.002;11.854;2022-09-12T14:30:37;19.10;99.90
46730;DHT22;32476;50.002;11.854;2022-09-12T14:36:23;19.40;99.90
46730;DHT22;32476;50.002;11.854;2022-09-12T14:38:40;19.30;99.90
46730;DHT22;32476;50.002;11.854;2022-09-12T14:41:10;19.40;99.90
46730;DHT22;32476;50.002;11.854;2022-09-12T14:43:44;19.30;99.90
46730;DHT22;32476;50.002;11.854;2022-09-12T14:46:42;19.40;99.90
46730;DHT22;32476;50.002;11.854;2022-09-12T14:51:56;19.30;99.90
46730;DHT22;32476;50.002;11.854;2022-09-12T15:00:25;19.20;99.90
46730;DHT22;32476;50.002;11.854;2022-09-12T15:02:54;19.10;99.90
46730;DHT22;32476;50.002;11.854;2022-09-12T15:05:23;18.60;99.90
46730;DHT22;32476;50.002;11.854;2022-09-12T15:07:54;18.60;99.90
46730;DHT22;32476;50.002;11.854;2022-09-12T15:15:42;18.50;99.90
46730;DHT22;32476;50.002;11.854;2022-09-12T15:18:10;18.50;99.90
46730;DHT22;32476;50.002;11.854;2022-09-12T15:20:38;18.60;99.90
46730;DHT22;32476;50.002;11.854;2022-09-12T15:23:11;18.60;99.90
46730;DHT22;32476;50.002;11.854;2022-09-12T15:25:40;18.60;99.90
46730;DHT22;32476;50.002;11.854;2022-09-12T15:28:20;18.70;99.90
46730;DHT22;32476;50.002;11.854;2022-09-12T15:30:48;18.60;99.90
46730;DHT22;32476;50.002;11.854;2022-09-12T15:33:18;18.50;99.90
46730;DHT22;32476;50.002;11.854;2022-09-12T15:35:45;18.60;99.90
46730;DHT22;32476;50.002;11.854;2022-09-12T15:38:11;18.30;99.90
46730;DHT22;32476;50.002;11.854;2022-09-12T15:40:39;18.40;99.90
46730;DHT22;32476;50.002;11.854;2022-09-12T15:43:06;18.40;99.90
46730;DHT22;32476;50.002;11.854;2022-09-12T15:45:33;18.50;99.90
46730;DHT22;32476;50.002;11.854;2022-09-12T15:48:01;18.40;99.90
46730;DHT22;32476;50.002;11.854;2022-09-12T15:50:27;18.40;99.90
46730;DHT22;32476;50.002;11.854;2022-09-12T15:52:54;18.20;99.90
46730;DHT22;32476;50.002;11.854;2022-09-12T15:55:28;18.20;99.90
46730;DHT22;32476;50.002;11.854;2022-09-12T15:57:55;18.10;99.90
46730;DHT22;32476;50.002;11.854;2022-09-12T16:00:23;18.10;99.90
46730;DHT22;32476;50.002;11.854;2022-09-12T16:02:51;18.10;99.90
46730;DHT22;32476;50.002;11.854;2022-09-12T16:05:24;18.00;99.90
46730;DHT22;32476;50.002;11.854;2022-09-12T16:07:53;17.90;99.90
46730;DHT22;32476;50.002;11.854;2022-09-12T16:10:26;18.00;99.90
46730;DHT22;32476;50.002;11.854;2022-09-12T16:12:55;18.00;99.90
46730;DHT22;32476;50.002;11.854;2022-09-12T16:15:23;18.00;99.90
46730;DHT22;32476;50.002;11.854;2022-09-12T16:17:50;18.10;99.90
46730;DHT22;32476;50.002;11.854;2022-09-12T16:20:20;18.20;99.90
46730;DHT22;32476;50.002;11.854;2022-09-12T16:22:46;18.30;99.90
46730;DHT22;32476;50.002;11.854;2022-09-12T16:25:13;18.40;99.90
46730;DHT22;32476;50.002;11.854;2022-09-12T16:27:40;18.50;99.90
46730;DHT22;32476;50.002;11.854;2022-09-12T16:30:07;18.60;99.90
46730;DHT22;32476;50.002;11.854;2022-09-12T16:32:33;18.60;99.90
46730;DHT22;32476;50.002;11.854;2022-09-12T16:35:01;18.80;99.90
46730;DHT22;32476;50.002;11.854;2022-09-12T16:37:28;18.70;99.90
46730;DHT22;32476;50.002;11.854;2022-09-12T16:39:54;18.80;99.90
46730;DHT22;32476;50.002;11.854;2022-09-12T16:42:21;18.90;99.90
46730;DHT22;32476;50.002;11.854;2022-09-12T16:44:47;19.00;99.90
46730;DHT22;32476;50.002;11.854;2022-09-12T16:47:13;19.00;99.90
46730;DHT22;32476;50.002;11.854;2022-09-12T16:49:41;18.90;99.90
46730;DHT22;32476;50.002;11.854;2022-09-12T16:52:07;18.80;99.90
46730;DHT22;32476;50.002;11.854;2022-09-12T16:54:33;18.80;99.90
46730;DHT22;32476;50.002;11.854;2022-09-12T16:57:01;18.50;99.90
46730;DHT22;32476;50.002;11.854;2022-09-12T16:59:29;18.00;99.90
46730;DHT22;32476;50.002;11.854;2022-09-12T17:01:55;17.70;99.90
46730;DHT22;32476;50.002;11.854;2022-09-12T17:04:23;17.50;99.90
46730;DHT22;32476;50.002;11.854;2022-09-12T17:06:50;17.30;99.90
46730;DHT22;32476;50.002;11.854;2022-09-12T17:09:16;16.90;99.90
46730;DHT22;32476;50.002;11.854;2022-09-12T17:11:46;16.80;99.90
46730;DHT22;32476;50.002;11.854;2022-09-12T17:14:13;16.60;99.90
46730;DHT22;32476;50.002;11.854;2022-09-12T17:16:42;16.40;99.90
46730;DHT22;32476;50.002;11.854;2022-09-12T17:19:17;16.20;99.90
46730;DHT22;32476;50.002;11.854;2022-09-12T17:21:45;16.10;99.90
46730;DHT22;32476;50.002;11.854;2022-09-12T17:24:16;15.90;99.90
46730;DHT22;32476;50.002;11.854;2022-09-12T17:26:43;15.80;99.90
46730;DHT22;32476;50.002;11.854;2022-09-12T17:29:11;15.70;99.90
46730;DHT22;32476;50.002;11.854;2022-09-12T17:31:40;15.50;99.90
46730;DHT22;32476;50.002;11.854;2022-09-12T17:34:07;15.30;99.90
46730;DHT22;32476;50.002;11.854;2022-09-12T17:36:33;15.10;99.90
46730;DHT22;32476;50.002;11.854;2022-09-12T17:39:02;15.00;99.90
46730;DHT22;32476;50.002;11.854;2022-09-12T17:41:29;14.80;99.90
46730;DHT22;32476;50.002;11.854;2022-09-12T17:44:00;14.70;99.90
46730;DHT22;32476;50.002;11.854;2022-09-12T17:46:33;14.50;99.90
46730;DHT22;32476;50.002;11.854;2022-09-12T17:49:07;14.30;99.90
46730;DHT22;32476;50.002;11.854;2022-09-12T17:51:35;14.10;99.90
46730;DHT22;32476;50.002;11.854;2022-09-12T17:54:09;13.90;99.90
46730;DHT22;32476;50.002;11.854;2022-09-12T17:56:37;13.80;99.90
46730;DHT22;32476;50.002;11.854;2022-09-12T17:59:06;13.60;99.90
46730;DHT22;32476;50.002;11.854;2022-09-12T18:01:33;13.60;99.90
46730;DHT22;32476;50.002;11.854;2022-09-12T18:04:19;13.50;99.90
46730;DHT22;32476;50.002;11.854;2022-09-12T18:06:45;13.40;99.90
46730;DHT22;32476;50.002;11.854;2022-09-12T18:09:17;13.30;99.90
46730;DHT22;32476;50.002;11.854;2022-09-12T18:11:46;13.20;99.90
46730;DHT22;32476;50.002;11.854;2022-09-12T18:14:14;13.10;99.90
46730;DHT22;32476;50.002;11.854;2022-09-12T18:16:40;12.90;99.90
46730;DHT22;32476;50.002;11.854;2022-09-12T18:19:09;12.90;99.90
46730;DHT22;32476;50.002;11.854;2022-09-12T18:21:35;12.80;99.90
46730;DHT22;32476;50.002;11.854;2022-09-12T18:24:02;12.70;99.90
46730;DHT22;32476;50.002;11.854;2022-09-12T18:26:30;12.70;99.90
46730;DHT22;32476;50.002;11.854;2022-09-12T18:28:57;12.60;99.90
46730;DHT22;32476;50.002;11.854;2022-09-12T18:31:26;12.50;99.90
46730;DHT22;32476;50.002;11.854;2022-09-12T18:33:58;12.50;99.90
46730;DHT22;32476;50.002;11.854;2022-09-12T18:36:28;12.40;99.90
46730;DHT22;32476;50.002;11.854;2022-09-12T18:38:58;12.40;99.90